createdAt,value
2018-06-09T00:04:51.926Z,3.54
2018-06-09T00:10:47.090Z,3.62
2018-06-09T00:16:41.894Z,3.25
2018-06-09T00:22:36.883Z,3.9
2018-06-09T00:28:31.894Z,4.51
2018-06-09T00:34:26.890Z,4.02
2018-06-09T00:40:21.942Z,5.01
2018-06-09T00:46:16.889Z,6.55
2018-06-09T00:52:11.892Z,6.34
2018-06-09T00:58:06.927Z,5.31
2018-06-09T01:04:01.912Z,5.08
2018-06-09T01:09:57.203Z,6.51
2018-06-09T01:15:51.901Z,5.73
2018-06-09T01:21:46.915Z,4.29
2018-06-09T01:27:41.883Z,4.5
2018-06-09T01:33:36.931Z,3.52
2018-06-09T01:39:31.904Z,3.96
2018-06-09T01:45:26.896Z,4.02
2018-06-09T01:51:21.897Z,4.01
2018-06-09T01:57:16.894Z,4.07
2018-06-09T02:03:11.895Z,4.54
2018-06-09T02:09:06.890Z,4.38
2018-06-09T02:15:01.897Z,4.4
2018-06-09T02:20:56.901Z,4.29
2018-06-09T02:26:52.065Z,4.61
2018-06-09T02:32:46.928Z,3.58
2018-06-09T02:38:41.930Z,4.24
2018-06-09T02:44:36.951Z,4.36
2018-06-09T02:50:31.949Z,4.67
2018-06-09T02:56:26.957Z,3.81
2018-06-09T03:02:21.923Z,3.78
2018-06-09T03:08:16.921Z,3.93
2018-06-09T03:14:11.912Z,3.72
2018-06-09T03:20:07.058Z,3.8
2018-06-09T03:26:01.956Z,4.09
2018-06-09T03:31:56.942Z,3.65
2018-06-09T03:37:51.946Z,3.95
2018-06-09T03:43:47.023Z,4.11
2018-06-09T03:49:41.961Z,3.96
2018-06-09T03:55:36.998Z,3.43
2018-06-09T04:01:31.894Z,3.98
2018-06-09T04:07:26.926Z,4.7
2018-06-09T04:13:21.986Z,3.85
2018-06-09T04:19:16.907Z,4.33
2018-06-09T04:25:11.986Z,4.05
2018-06-09T04:31:06.975Z,3.92
2018-06-09T04:37:01.935Z,4.24
2018-06-09T04:42:57.044Z,3.69
2018-06-09T04:48:59.223Z,3.82
2018-06-09T04:54:46.919Z,3.57
2018-06-09T05:00:41.944Z,3.41
2018-06-09T05:06:36.924Z,3.63
2018-06-09T05:12:31.945Z,3.8
2018-06-09T05:18:27.020Z,3.92
2018-06-09T05:24:21.922Z,3.63
2018-06-09T05:30:16.952Z,3.56
2018-06-09T05:36:11.965Z,3.37
2018-06-09T05:42:06.981Z,3.47
2018-06-09T05:48:01.956Z,4.08
2018-06-09T05:53:56.987Z,4.82
2018-06-09T05:59:51.975Z,4.29
2018-06-09T06:05:46.918Z,4.53
2018-06-09T06:11:41.934Z,4.45
2018-06-09T06:17:36.959Z,4.16
2018-06-09T06:23:31.990Z,4.22
2018-06-09T06:29:26.928Z,3.92
2018-06-09T06:35:21.918Z,4.41
2018-06-09T06:41:17.018Z,4.63
2018-06-09T06:47:12.002Z,4.92
2018-06-09T06:53:06.951Z,4.23
2018-06-09T06:59:01.953Z,4.3
2018-06-09T07:04:56.936Z,4.73
2018-06-09T07:10:51.940Z,4
2018-06-09T07:16:46.994Z,4.23
2018-06-09T07:22:41.969Z,4.09
2018-06-09T07:28:36.965Z,4.55
2018-06-09T07:34:32.032Z,4.83
2018-06-09T07:40:26.958Z,4.73
2018-06-09T07:46:21.975Z,4.69
2018-06-09T07:52:16.995Z,4.36
2018-06-09T07:58:11.940Z,4.13
2018-06-09T08:04:06.965Z,3.63
2018-06-09T08:10:02.262Z,3.95
2018-06-09T08:15:56.979Z,3.41
2018-06-09T08:21:52.008Z,3.63
2018-06-09T08:27:46.983Z,3.48
2018-06-09T08:33:41.979Z,3.3
2018-06-09T08:39:36.973Z,3.29
2018-06-09T08:45:32.073Z,2.92
2018-06-09T08:51:27.025Z,3.53
2018-06-09T08:57:22.026Z,3.28
2018-06-09T09:03:16.993Z,3.05
2018-06-09T09:09:12.044Z,2.74
2018-06-09T09:15:07.108Z,2.67
2018-06-09T09:21:02.013Z,2.5
2018-06-09T09:26:56.978Z,2.67
2018-06-09T09:32:51.980Z,3.41
2018-06-09T09:38:47.015Z,3.1
2018-06-09T09:44:42.000Z,3.53
2018-06-09T09:50:44.473Z,3.98
2018-06-09T09:56:31.992Z,4.12
2018-06-09T10:02:27.078Z,4.17
2018-06-09T10:08:21.996Z,3.44
2018-06-09T10:14:17.024Z,4.38
2018-06-09T10:20:12.054Z,3.47
2018-06-09T10:26:07.052Z,3.1
2018-06-09T10:32:02.054Z,3.46
2018-06-09T10:37:57.073Z,2.84
2018-06-09T10:43:52.043Z,2.96
2018-06-09T10:49:47.032Z,3.24
2018-06-09T10:55:42.020Z,3.6
2018-06-09T11:01:37.050Z,3.88
2018-06-09T11:07:32.092Z,2.87
2018-06-09T11:13:27.057Z,3.05
2018-06-09T11:19:22.039Z,3.51
2018-06-09T11:25:17.194Z,2.72
2018-06-09T11:31:12.078Z,2.65
2018-06-09T11:37:07.568Z,2.65
2018-06-09T11:43:02.029Z,2.46
2018-06-09T11:48:57.097Z,2.37
2018-06-09T11:54:52.038Z,2.57
2018-06-09T12:00:47.056Z,2.75
2018-06-09T12:06:42.064Z,2.62
2018-06-09T12:12:37.095Z,2.74
2018-06-09T12:18:32.108Z,2.65
2018-06-09T12:24:27.143Z,2.53
2018-06-09T12:30:22.779Z,2.45
2018-06-09T12:36:17.049Z,2.33
2018-06-09T12:42:12.072Z,2.08
2018-06-09T12:48:07.328Z,2.08
2018-06-09T12:54:02.672Z,2.23
2018-06-09T12:59:57.082Z,2.11
2018-06-09T13:05:52.151Z,2.32
2018-06-09T13:11:47.682Z,1.93
2018-06-09T13:17:42.102Z,2.07
2018-06-09T13:23:37.121Z,2.03
2018-06-09T13:29:32.088Z,2.34
2018-06-09T13:35:27.119Z,2.42
2018-06-09T13:41:22.426Z,2.98
2018-06-09T13:47:17.105Z,2.44
2018-06-09T13:53:12.179Z,2.04
2018-06-09T13:59:07.158Z,2.1
2018-06-09T14:05:02.408Z,2.26
2018-06-09T14:10:57.156Z,2.7
2018-06-09T14:16:52.116Z,2.3
2018-06-09T14:22:47.557Z,2.53
2018-06-09T14:28:42.116Z,2.39
2018-06-09T14:34:37.141Z,2.2
2018-06-09T14:40:32.124Z,2.25
2018-06-09T14:46:27.122Z,2.17
2018-06-09T14:52:22.109Z,1.93
2018-06-09T14:58:17.114Z,2.2
2018-06-09T15:04:12.828Z,2.63
2018-06-09T15:10:07.106Z,2.13
2018-06-09T15:16:02.184Z,2.16
2018-06-09T15:21:57.111Z,2.07
2018-06-09T15:27:52.143Z,2.23
2018-06-09T15:33:47.249Z,2.03
2018-06-09T15:39:42.126Z,2.18
2018-06-09T15:45:37.235Z,2.7
2018-06-09T15:51:32.140Z,2.05
2018-06-09T15:57:27.200Z,1.77
2018-06-09T16:03:22.422Z,2.27
2018-06-09T16:09:17.169Z,2.12
2018-06-09T16:15:12.736Z,2.29
2018-06-09T16:21:07.235Z,2
2018-06-09T16:27:02.170Z,1.95
2018-06-09T16:32:57.164Z,1.95
2018-06-09T16:38:52.212Z,2.08
2018-06-09T16:44:47.182Z,2.05
2018-06-09T16:50:42.226Z,2.13
2018-06-09T16:56:37.888Z,2.34
2018-06-09T17:02:32.163Z,1.99
2018-06-09T17:08:27.185Z,2.42
2018-06-09T17:14:22.169Z,2.23
2018-06-09T17:20:17.183Z,2.05
2018-06-09T17:26:12.157Z,2.42
2018-06-09T17:32:07.223Z,2.25
2018-06-09T17:38:02.216Z,2.11
2018-06-09T17:43:57.293Z,2.01
2018-06-09T17:49:52.192Z,1.99
2018-06-09T17:55:47.180Z,3.05
2018-06-09T18:01:42.216Z,2.59
2018-06-09T18:07:37.179Z,2.92
2018-06-09T18:13:32.235Z,2.73
2018-06-09T18:19:27.209Z,2.74
2018-06-09T18:25:22.216Z,2.28
2018-06-09T18:31:17.241Z,2.35
2018-06-09T18:37:12.252Z,2.22
2018-06-09T18:43:07.190Z,6.78
2018-06-09T18:49:02.228Z,2.3
2018-06-09T18:54:57.221Z,2.34
2018-06-09T19:00:52.212Z,2.69
2018-06-09T19:06:47.297Z,2.28
2018-06-09T19:12:42.327Z,2.73
2018-06-09T19:18:37.268Z,2.41
2018-06-09T19:24:32.258Z,2.52
2018-06-09T19:30:27.225Z,2.83
2018-06-09T19:36:22.216Z,2.25
2018-06-09T19:42:17.291Z,2.37
2018-06-09T19:48:12.233Z,2.66
2018-06-09T19:54:07.287Z,3.45
2018-06-09T20:00:02.912Z,2.36
2018-06-09T20:05:57.260Z,2.25
2018-06-09T20:11:52.274Z,2.83
2018-06-09T20:17:47.299Z,2.4
2018-06-09T20:23:42.264Z,2.33
2018-06-09T20:29:37.223Z,2.74
2018-06-09T20:35:32.264Z,2.64
2018-06-09T20:41:27.329Z,2.87
2018-06-09T20:47:22.335Z,2.54
2018-06-09T20:53:17.255Z,2.59
2018-06-09T20:59:12.250Z,2.58
2018-06-09T21:05:07.236Z,2.87
2018-06-09T21:11:02.285Z,2.91
2018-06-09T21:16:57.286Z,3.21
2018-06-09T21:22:52.949Z,3.14
2018-06-09T21:28:47.271Z,3.23
2018-06-09T21:34:42.304Z,3.17
2018-06-09T21:40:37.274Z,3.8
2018-06-09T21:46:32.333Z,3.12
2018-06-09T21:52:27.368Z,3.58
2018-06-09T21:58:22.326Z,3.74
2018-06-09T22:04:17.281Z,3.24
2018-06-09T22:10:12.276Z,3.61
2018-06-09T22:16:07.297Z,3.43
2018-06-09T22:22:02.376Z,3.22
2018-06-09T22:27:57.279Z,3.21
2018-06-09T22:33:52.344Z,3.91
2018-06-09T22:39:47.279Z,3.7
2018-06-09T22:45:42.335Z,3.66
2018-06-09T22:51:37.329Z,3.44
2018-06-09T22:57:32.288Z,3.57
2018-06-09T23:03:27.320Z,3.9
2018-06-09T23:09:22.285Z,3.6
2018-06-09T23:15:17.361Z,3.96
2018-06-09T23:21:12.334Z,3.8
2018-06-09T23:27:07.333Z,3.68
2018-06-09T23:33:02.393Z,3.43
2018-06-09T23:38:57.311Z,3.27
2018-06-09T23:44:52.320Z,3.14
2018-06-09T23:50:47.388Z,3.35
2018-06-09T23:56:42.326Z,3.05
